createdAt,value
2018-03-20T00:02:16.924Z,11.40
2018-03-20T00:04:45.209Z,10.68
2018-03-20T00:07:13.561Z,9.52
2018-03-20T00:09:41.067Z,10.23
2018-03-20T00:12:08.587Z,9.63
2018-03-20T00:14:36.061Z,9.70
2018-03-20T00:17:03.610Z,9.15
2018-03-20T00:19:31.124Z,9.73
2018-03-20T00:21:59.388Z,9.75
2018-03-20T00:24:26.954Z,9.63
2018-03-20T00:26:54.451Z,10.52
2018-03-20T00:29:21.950Z,9.05
2018-03-20T00:31:49.454Z,10.23
2018-03-20T00:34:17.964Z,10.63
2018-03-20T00:36:46.352Z,9.05
2018-03-20T00:39:13.920Z,8.95
2018-03-20T00:41:41.393Z,8.65
2018-03-20T00:44:08.874Z,9.85
2018-03-20T00:46:36.506Z,9.63
2018-03-20T00:49:04.012Z,9.85
2018-03-20T00:51:31.556Z,11.75
2018-03-20T00:53:59.083Z,11.35
2018-03-20T00:56:26.607Z,14.00
2018-03-20T00:58:54.136Z,14.32
2018-03-20T01:01:21.611Z,12.75
2018-03-20T01:03:49.183Z,12.20
2018-03-20T01:06:16.675Z,11.12
2018-03-20T01:08:45.020Z,11.63
2018-03-20T01:11:12.489Z,11.57
2018-03-20T01:13:40.040Z,11.30
2018-03-20T01:16:07.589Z,12.43
2018-03-20T01:18:35.079Z,11.38
2018-03-20T01:21:02.796Z,10.63
2018-03-20T01:23:30.294Z,11.70
2018-03-20T01:25:57.763Z,10.15
2018-03-20T01:28:25.272Z,11.40
2018-03-20T01:30:52.762Z,11.05
2018-03-20T01:33:20.242Z,10.30
2018-03-20T01:35:47.805Z,10.32
2018-03-20T01:38:16.858Z,9.80
2018-03-20T01:40:44.404Z,10.43
2018-03-20T01:43:12.238Z,9.20
2018-03-20T01:45:39.977Z,10.15
2018-03-20T01:48:07.520Z,10.73
2018-03-20T01:50:35.839Z,10.20
2018-03-20T01:53:03.409Z,11.25
2018-03-20T01:55:31.704Z,10.83
2018-03-20T01:57:59.205Z,11.10
2018-03-20T02:00:26.692Z,10.57
2018-03-20T02:02:54.193Z,10.67
2018-03-20T02:05:22.489Z,11.20
2018-03-20T02:07:50.038Z,10.90
2018-03-20T02:10:17.551Z,10.40
2018-03-20T02:12:45.065Z,10.63
2018-03-20T02:15:13.322Z,9.70
2018-03-20T02:17:41.601Z,10.43
2018-03-20T02:20:09.129Z,10.90
2018-03-20T02:22:36.649Z,10.00
2018-03-20T02:25:05.018Z,12.00
2018-03-20T02:27:32.589Z,10.20
2018-03-20T02:30:00.110Z,10.90
2018-03-20T02:32:27.605Z,8.50
2018-03-20T02:34:55.879Z,9.53
2018-03-20T02:37:23.391Z,9.10
2018-03-20T02:39:50.899Z,9.07
2018-03-20T02:42:19.152Z,9.90
2018-03-20T02:44:46.766Z,11.20
2018-03-20T02:47:14.234Z,9.20
2018-03-20T02:49:42.401Z,10.30
2018-03-20T02:52:09.891Z,10.10
2018-03-20T02:54:37.427Z,10.30
2018-03-20T02:57:04.962Z,10.20
2018-03-20T02:59:33.063Z,10.17
2018-03-20T03:02:00.547Z,10.60
2018-03-20T03:04:28.054Z,10.10
2018-03-20T03:06:55.634Z,10.20
2018-03-20T03:09:23.932Z,10.50
2018-03-20T03:11:51.462Z,12.00
2018-03-20T03:14:18.925Z,10.10
2018-03-20T03:16:47.356Z,10.30
2018-03-20T03:19:14.848Z,10.60
2018-03-20T03:21:42.484Z,10.70
2018-03-20T03:24:10.002Z,10.50
2018-03-20T03:26:37.610Z,11.00
2018-03-20T03:29:05.078Z,10.30
2018-03-20T03:31:32.597Z,9.67
2018-03-20T03:34:00.150Z,10.60
2018-03-20T03:36:27.667Z,9.60
2018-03-20T03:38:55.216Z,10.67
2018-03-20T03:41:22.655Z,10.50
2018-03-20T03:43:50.208Z,10.53
2018-03-20T03:46:17.688Z,9.93
2018-03-20T03:48:45.315Z,11.20
2018-03-20T03:51:13.555Z,9.33
2018-03-20T03:53:41.821Z,10.50
2018-03-20T03:56:09.306Z,10.83
2018-03-20T03:58:36.844Z,10.57
2018-03-20T04:01:04.273Z,9.13
2018-03-20T04:03:31.779Z,9.13
2018-03-20T04:05:59.529Z,10.80
2018-03-20T04:08:27.003Z,9.97
2018-03-20T04:10:55.331Z,9.93
2018-03-20T04:13:23.597Z,11.47
2018-03-20T04:15:51.128Z,12.17
2018-03-20T04:18:19.392Z,11.70
2018-03-20T04:20:46.921Z,9.97
2018-03-20T04:23:14.758Z,11.20
2018-03-20T04:25:42.276Z,10.47
2018-03-20T04:28:09.768Z,11.30
2018-03-20T04:30:38.079Z,9.67
2018-03-20T04:33:06.328Z,11.03
2018-03-20T04:35:34.580Z,10.77
2018-03-20T04:38:02.173Z,10.20
2018-03-20T04:40:29.647Z,11.90
2018-03-20T04:42:57.897Z,12.80
2018-03-20T04:45:25.433Z,12.43
2018-03-20T04:47:52.967Z,11.10
2018-03-20T04:50:20.486Z,10.90
2018-03-20T04:52:48.131Z,11.97
2018-03-20T04:55:15.634Z,11.23
2018-03-20T04:57:43.136Z,11.30
2018-03-20T05:00:10.674Z,11.80
2018-03-20T05:02:38.148Z,11.10
2018-03-20T05:05:06.361Z,12.20
2018-03-20T05:07:33.907Z,12.50
2018-03-20T05:10:02.097Z,13.07
2018-03-20T05:12:30.430Z,12.67
2018-03-20T05:14:57.914Z,13.07
2018-03-20T05:17:25.448Z,12.50
2018-03-20T05:19:52.928Z,13.23
2018-03-20T05:22:21.261Z,12.53
2018-03-20T05:24:48.765Z,13.50
2018-03-20T05:27:17.064Z,12.33
2018-03-20T05:29:45.294Z,14.53
2018-03-20T05:32:12.898Z,12.70
2018-03-20T05:34:40.339Z,13.60
2018-03-20T05:37:08.146Z,12.90
2018-03-20T05:39:35.639Z,14.20
2018-03-20T05:42:03.152Z,13.43
2018-03-20T05:44:31.508Z,14.53
2018-03-20T05:46:59.014Z,13.47
2018-03-20T05:49:26.798Z,13.63
2018-03-20T05:51:55.137Z,14.50
2018-03-20T05:54:22.824Z,14.17
2018-03-20T05:56:50.416Z,13.97
2018-03-20T05:59:18.165Z,16.07
2018-03-20T06:01:46.479Z,15.63
2018-03-20T06:04:14.010Z,15.60
2018-03-20T06:06:41.618Z,15.40
2018-03-20T06:09:09.128Z,15.60
2018-03-20T06:11:36.604Z,13.90
2018-03-20T06:14:04.368Z,15.90
2018-03-20T06:16:32.072Z,17.10
2018-03-20T06:19:00.333Z,17.93
2018-03-20T06:21:27.902Z,15.63
2018-03-20T06:23:55.447Z,17.53
2018-03-20T06:26:22.973Z,17.70
2018-03-20T06:28:50.446Z,15.77
2018-03-20T06:31:17.929Z,16.93
2018-03-20T06:33:46.263Z,17.23
2018-03-20T06:36:13.746Z,18.70
2018-03-20T06:38:43.292Z,16.57
2018-03-20T06:41:11.097Z,17.37
2018-03-20T06:43:38.640Z,15.30
2018-03-20T06:46:06.175Z,17.50
2018-03-20T06:48:33.691Z,18.83
2018-03-20T06:51:01.283Z,18.33
2018-03-20T06:53:28.802Z,19.67
2018-03-20T06:55:56.278Z,19.03
2018-03-20T06:58:23.795Z,16.50
2018-03-20T07:00:52.094Z,19.40
2018-03-20T07:03:19.621Z,16.70
2018-03-20T07:05:47.219Z,18.60
2018-03-20T07:08:14.684Z,20.80
2018-03-20T07:10:42.934Z,20.97
2018-03-20T07:13:10.400Z,16.10
2018-03-20T07:15:38.776Z,15.50
2018-03-20T07:18:06.315Z,16.17
2018-03-20T07:20:33.995Z,16.83
2018-03-20T07:23:01.556Z,13.80
2018-03-20T07:25:28.978Z,13.70
2018-03-20T07:27:56.483Z,15.43
2018-03-20T07:30:24.041Z,14.47
2018-03-20T07:32:51.599Z,14.27
2018-03-20T07:35:19.848Z,15.17
2018-03-20T07:37:47.486Z,15.80
2018-03-20T07:40:14.964Z,13.30
2018-03-20T07:42:43.188Z,14.23
2018-03-20T07:45:10.736Z,14.07
2018-03-20T07:47:38.971Z,16.00
2018-03-20T07:50:07.711Z,13.63
2018-03-20T07:52:35.956Z,15.07
2018-03-20T07:55:07.121Z,14.83
2018-03-20T07:57:35.437Z,15.43
2018-03-20T08:00:02.911Z,12.77
2018-03-20T08:02:30.490Z,12.00
2018-03-20T08:04:57.989Z,10.03
2018-03-20T08:07:26.339Z,10.77
2018-03-20T08:09:54.157Z,7.60
2018-03-20T08:12:21.634Z,10.03
2018-03-20T08:14:49.758Z,9.70
2018-03-20T08:17:17.284Z,9.93
2018-03-20T08:19:44.809Z,8.40
2018-03-20T08:22:12.298Z,7.80
2018-03-20T08:24:39.775Z,9.53
2018-03-20T08:27:07.305Z,7.20
2018-03-20T08:29:34.779Z,5.97
2018-03-20T08:32:02.269Z,7.60
2018-03-20T08:34:29.736Z,6.33
2018-03-20T08:36:57.304Z,7.00
2018-03-20T08:39:24.832Z,6.17
2018-03-20T08:41:52.419Z,7.40
2018-03-20T08:44:19.997Z,7.47
2018-03-20T08:46:47.562Z,8.50
2018-03-20T08:49:15.030Z,7.57
2018-03-20T08:51:42.480Z,7.00
2018-03-20T08:54:10.010Z,6.10
2018-03-20T08:56:37.498Z,8.13
2018-03-20T08:59:04.994Z,6.40
2018-03-20T09:01:32.596Z,5.83
2018-03-20T09:04:00.861Z,5.53
2018-03-20T09:06:29.152Z,6.87
2018-03-20T09:08:57.407Z,5.93
2018-03-20T09:11:25.692Z,7.00
2018-03-20T09:13:53.129Z,6.60
2018-03-20T09:16:20.732Z,6.40
2018-03-20T09:18:49.040Z,6.80
2018-03-20T09:21:17.322Z,5.83
2018-03-20T09:23:45.557Z,7.00
2018-03-20T09:26:13.897Z,4.20
2018-03-20T09:28:41.348Z,5.27
2018-03-20T09:31:08.842Z,6.93
2018-03-20T09:33:36.360Z,6.50
2018-03-20T09:36:03.851Z,5.33
2018-03-20T09:38:31.965Z,6.17
2018-03-20T09:40:59.449Z,5.10
2018-03-20T09:43:27.362Z,6.60
2018-03-20T09:45:55.579Z,6.60
2018-03-20T09:48:23.120Z,6.23
2018-03-20T09:50:50.626Z,5.47
2018-03-20T09:53:18.939Z,5.50
2018-03-20T09:55:46.689Z,6.07
2018-03-20T09:58:14.229Z,5.27
2018-03-20T10:00:42.478Z,4.17
2018-03-20T10:03:10.022Z,4.63
2018-03-20T10:05:37.498Z,3.40
2018-03-20T10:08:05.022Z,3.63
2018-03-20T10:10:32.512Z,3.43
2018-03-20T10:12:59.978Z,3.37
2018-03-20T10:15:28.330Z,3.00
2018-03-20T10:17:55.858Z,4.77
2018-03-20T10:20:23.663Z,3.20
2018-03-20T10:22:51.942Z,3.50
2018-03-20T10:25:19.412Z,3.80
2018-03-20T10:27:46.878Z,4.00
2018-03-20T10:30:14.422Z,3.40
2018-03-20T10:32:42.663Z,2.53
2018-03-20T10:35:10.229Z,3.20
2018-03-20T10:37:37.836Z,2.80
2018-03-20T10:40:05.307Z,2.60
2018-03-20T10:42:32.901Z,2.97
2018-03-20T10:45:00.390Z,2.93
2018-03-20T10:47:27.892Z,2.73
2018-03-20T10:49:55.378Z,1.73
2018-03-20T10:52:22.917Z,2.20
2018-03-20T10:54:50.439Z,2.67
2018-03-20T10:57:17.911Z,1.37
2018-03-20T10:59:45.431Z,1.97
2018-03-20T11:02:12.974Z,1.73
2018-03-20T11:04:40.503Z,1.93
2018-03-20T11:07:09.090Z,1.90
2018-03-20T11:09:36.593Z,1.23
2018-03-20T11:12:04.099Z,1.20
2018-03-20T11:14:31.665Z,1.67
2018-03-20T11:16:59.342Z,1.43
2018-03-20T11:19:26.827Z,1.00
2018-03-20T11:21:55.091Z,1.17
2018-03-20T11:24:22.606Z,1.70
2018-03-20T11:26:50.139Z,1.50
2018-03-20T11:29:17.618Z,2.23
2018-03-20T11:31:45.158Z,1.70
2018-03-20T11:34:12.740Z,1.60
2018-03-20T11:36:40.750Z,0.90
2018-03-20T11:39:08.232Z,1.47
2018-03-20T11:41:35.703Z,0.90
2018-03-20T11:44:03.198Z,0.90
2018-03-20T11:46:31.440Z,1.20
2018-03-20T11:48:58.976Z,1.50
2018-03-20T11:51:26.468Z,1.60
2018-03-20T11:53:54.072Z,1.47
2018-03-20T11:56:21.479Z,1.53
2018-03-20T11:58:49.071Z,1.53
2018-03-20T12:01:16.564Z,1.33
2018-03-20T12:03:44.063Z,1.03
2018-03-20T12:06:11.805Z,1.60
2018-03-20T12:08:39.319Z,1.30
2018-03-20T12:11:06.863Z,1.03
2018-03-20T12:13:35.037Z,0.90
2018-03-20T12:16:02.591Z,1.67
2018-03-20T12:18:30.161Z,1.60
2018-03-20T12:20:57.681Z,0.90
2018-03-20T12:23:25.300Z,1.40
2018-03-20T12:25:52.727Z,1.03
2018-03-20T12:28:20.241Z,1.20
2018-03-20T12:30:47.751Z,1.00
2018-03-20T12:33:15.980Z,1.27
2018-03-20T12:35:43.511Z,1.90
2018-03-20T12:38:11.010Z,1.30
2018-03-20T12:40:38.512Z,0.90
2018-03-20T12:43:06.427Z,1.23
2018-03-20T12:45:33.886Z,1.10
2018-03-20T12:48:01.373Z,0.90
2018-03-20T12:50:28.888Z,0.90
2018-03-20T12:52:57.671Z,0.90
2018-03-20T12:55:25.896Z,1.33
2018-03-20T12:57:53.446Z,1.40
2018-03-20T13:00:21.757Z,1.00
2018-03-20T13:02:49.217Z,1.50
2018-03-20T13:05:16.718Z,1.47
2018-03-20T13:07:44.258Z,1.20
2018-03-20T13:10:11.905Z,1.60
2018-03-20T13:12:39.383Z,0.90
2018-03-20T13:15:06.862Z,1.07
2018-03-20T13:17:34.355Z,1.10
2018-03-20T13:20:01.849Z,1.10
2018-03-20T13:22:29.380Z,1.20
2018-03-20T13:24:56.901Z,1.00
2018-03-20T13:27:24.350Z,0.87
2018-03-20T13:29:51.830Z,0.80
2018-03-20T13:32:20.189Z,0.83
2018-03-20T13:34:47.712Z,1.07
2018-03-20T13:37:15.175Z,1.00
2018-03-20T13:39:42.760Z,0.70
2018-03-20T13:42:10.208Z,1.00
2018-03-20T13:44:38.738Z,1.33
2018-03-20T13:47:06.206Z,1.17
2018-03-20T13:49:33.702Z,1.20
2018-03-20T13:52:01.270Z,1.30
2018-03-20T13:54:28.715Z,2.23
2018-03-20T13:56:56.275Z,0.80
2018-03-20T13:59:25.202Z,0.70
2018-03-20T14:01:52.707Z,0.80
2018-03-20T14:04:20.201Z,0.77
2018-03-20T14:06:47.737Z,0.90
2018-03-20T14:09:15.237Z,0.80
2018-03-20T14:11:42.710Z,1.00
2018-03-20T14:14:10.253Z,1.50
2018-03-20T14:16:37.762Z,1.03
2018-03-20T14:19:05.287Z,1.60
2018-03-20T14:21:33.540Z,1.50
2018-03-20T14:24:01.025Z,1.40
2018-03-20T14:26:29.355Z,1.33
2018-03-20T14:28:56.847Z,1.27
2018-03-20T14:31:24.382Z,1.43
2018-03-20T14:33:51.962Z,1.37
2018-03-20T14:36:19.396Z,1.00
2018-03-20T14:38:46.942Z,0.90
2018-03-20T14:41:14.874Z,1.10
2018-03-20T14:43:42.407Z,3.20
2018-03-20T14:46:09.897Z,1.43
2018-03-20T14:48:37.380Z,1.73
2018-03-20T14:51:04.907Z,1.40
2018-03-20T14:53:32.449Z,1.87
2018-03-20T14:56:01.282Z,1.53
2018-03-20T14:58:28.794Z,1.47
2018-03-20T15:00:56.322Z,1.63
2018-03-20T15:03:24.592Z,1.10
2018-03-20T15:05:52.122Z,1.20
2018-03-20T15:08:19.588Z,1.10
2018-03-20T15:10:47.871Z,1.67
2018-03-20T15:13:15.372Z,1.87
2018-03-20T15:15:43.735Z,2.20
2018-03-20T15:18:11.186Z,1.00
2018-03-20T15:20:38.792Z,1.10
2018-03-20T15:23:07.694Z,1.50
2018-03-20T15:25:35.980Z,1.93
2018-03-20T15:28:04.270Z,1.30
2018-03-20T15:30:31.817Z,1.57
2018-03-20T15:33:00.100Z,1.13
2018-03-20T15:35:28.623Z,1.40
2018-03-20T15:37:56.194Z,1.43
2018-03-20T15:40:24.480Z,1.10
2018-03-20T15:42:51.977Z,1.57
2018-03-20T15:45:20.418Z,1.20
2018-03-20T15:47:48.004Z,1.53
2018-03-20T15:50:15.487Z,1.10
2018-03-20T15:52:42.991Z,2.00
2018-03-20T15:55:10.451Z,1.20
2018-03-20T15:57:38.743Z,1.50
2018-03-20T16:00:07.088Z,1.53
2018-03-20T16:02:36.097Z,1.27
2018-03-20T16:05:03.573Z,1.70
2018-03-20T16:07:31.029Z,1.50
2018-03-20T16:09:58.505Z,1.83
2018-03-20T16:12:26.042Z,2.07
2018-03-20T16:14:54.455Z,1.80
2018-03-20T16:17:22.730Z,2.10
2018-03-20T16:19:50.204Z,2.47
2018-03-20T16:22:17.875Z,1.60
2018-03-20T16:24:45.370Z,2.37
2018-03-20T16:27:12.935Z,2.00
2018-03-20T16:29:41.162Z,1.90
2018-03-20T16:32:08.863Z,2.40
2018-03-20T16:34:36.674Z,2.20
2018-03-20T16:37:04.167Z,3.00
2018-03-20T16:39:33.093Z,2.23
2018-03-20T16:42:00.583Z,2.37
2018-03-20T16:44:28.968Z,2.70
2018-03-20T16:46:56.475Z,2.83
2018-03-20T16:49:24.225Z,2.83
2018-03-20T16:51:53.756Z,3.03
2018-03-20T16:54:21.281Z,3.70
2018-03-20T16:56:48.788Z,2.40
2018-03-20T16:59:16.473Z,2.60
2018-03-20T17:01:44.625Z,2.90
2018-03-20T17:04:12.169Z,3.50
2018-03-20T17:06:40.759Z,2.23
2018-03-20T17:09:08.451Z,2.50
2018-03-20T17:11:35.995Z,3.40
2018-03-20T17:14:03.493Z,2.23
2018-03-20T17:16:30.993Z,2.80
2018-03-20T17:18:58.475Z,2.30
2018-03-20T17:21:25.978Z,2.37
2018-03-20T17:23:53.494Z,2.40
2018-03-20T17:26:21.772Z,3.00
2018-03-20T17:28:50.399Z,2.33
2018-03-20T17:31:18.067Z,2.63
2018-03-20T17:33:45.806Z,2.40
2018-03-20T17:36:13.373Z,2.83
2018-03-20T17:38:42.204Z,2.33
2018-03-20T17:41:09.672Z,2.00
2018-03-20T17:43:37.154Z,2.63
2018-03-20T17:46:04.706Z,3.60
2018-03-20T17:48:32.969Z,1.50
2018-03-20T17:51:00.473Z,4.30
2018-03-20T17:53:28.788Z,3.40
2018-03-20T17:55:56.362Z,2.80
2018-03-20T17:58:24.589Z,2.00
2018-03-20T18:00:52.131Z,3.30
2018-03-20T18:03:19.669Z,2.13
2018-03-20T18:05:47.248Z,2.53
2018-03-20T18:08:14.781Z,2.47
2018-03-20T18:10:42.895Z,3.17
2018-03-20T18:13:10.874Z,2.23
2018-03-20T18:15:38.395Z,2.57
2018-03-20T18:18:06.308Z,2.40
2018-03-20T18:20:34.069Z,2.83
2018-03-20T18:23:01.819Z,2.53
2018-03-20T18:25:29.311Z,2.53
2018-03-20T18:27:56.833Z,2.20
2018-03-20T18:30:24.299Z,2.43
2018-03-20T18:32:52.605Z,2.70
2018-03-20T18:35:20.085Z,2.90
2018-03-20T18:37:47.558Z,3.13
2018-03-20T18:40:15.101Z,3.83
2018-03-20T18:42:42.936Z,2.70
2018-03-20T18:45:10.417Z,2.40
2018-03-20T18:47:37.886Z,2.43
2018-03-20T18:50:05.467Z,3.30
2018-03-20T18:52:32.986Z,3.20
2018-03-20T18:55:01.259Z,2.83
2018-03-20T18:57:29.623Z,2.63
2018-03-20T18:59:57.108Z,3.10
2018-03-20T19:02:25.410Z,2.50
2018-03-20T19:04:53.720Z,2.23
2018-03-20T19:07:22.038Z,2.60
2018-03-20T19:09:49.491Z,2.27
2018-03-20T19:12:17.778Z,3.90
2018-03-20T19:14:46.081Z,3.40
2018-03-20T19:17:14.407Z,2.70
2018-03-20T19:19:41.903Z,3.00
2018-03-20T19:22:09.558Z,2.80
2018-03-20T19:24:38.444Z,2.53
2018-03-20T19:27:06.061Z,3.10
2018-03-20T19:29:33.565Z,2.60
2018-03-20T19:32:01.160Z,3.20
2018-03-20T19:34:28.736Z,2.70
2018-03-20T19:36:56.213Z,3.07
2018-03-20T19:39:23.721Z,3.00
2018-03-20T19:41:51.181Z,2.83
2018-03-20T19:44:19.511Z,2.60
2018-03-20T19:46:48.296Z,2.27
2018-03-20T19:49:15.767Z,2.23
2018-03-20T19:51:44.149Z,2.53
2018-03-20T19:54:11.636Z,2.70
2018-03-20T19:56:39.221Z,2.40
2018-03-20T19:59:06.691Z,2.83
2018-03-20T20:01:34.232Z,1.73
2018-03-20T20:04:01.963Z,1.60
2018-03-20T20:06:29.572Z,2.60
2018-03-20T20:08:57.088Z,2.97
2018-03-20T20:11:24.706Z,2.83
2018-03-20T20:13:53.449Z,1.90
2018-03-20T20:16:20.898Z,3.33
2018-03-20T20:18:48.432Z,2.93
2018-03-20T20:21:16.019Z,3.20
2018-03-20T20:23:43.608Z,2.70
2018-03-20T20:26:11.064Z,3.07
2018-03-20T20:28:38.716Z,3.60
2018-03-20T20:31:06.957Z,3.80
2018-03-20T20:33:34.511Z,3.10
2018-03-20T20:36:02.008Z,2.73
2018-03-20T20:38:29.575Z,2.67
2018-03-20T20:40:57.054Z,3.00
2018-03-20T20:43:24.571Z,2.80
2018-03-20T20:45:52.328Z,2.37
2018-03-20T20:48:21.625Z,2.80
2018-03-20T20:50:51.205Z,2.40
2018-03-20T20:53:18.863Z,3.00
2018-03-20T20:55:46.409Z,2.37
2018-03-20T20:58:14.772Z,2.70
2018-03-20T21:00:43.524Z,2.33
2018-03-20T21:03:10.972Z,3.20
2018-03-20T21:05:39.158Z,4.50
2018-03-20T21:08:07.458Z,3.50
2018-03-20T21:10:35.095Z,3.50
2018-03-20T21:13:02.625Z,3.07
2018-03-20T21:15:30.808Z,3.20
2018-03-20T21:17:58.499Z,2.73
2018-03-20T21:20:25.971Z,2.47
2018-03-20T21:22:53.482Z,3.50
2018-03-20T21:25:20.976Z,3.33
2018-03-20T21:27:48.503Z,3.03
2018-03-20T21:30:15.979Z,4.53
2018-03-20T21:32:43.556Z,3.20
2018-03-20T21:35:12.453Z,4.23
2018-03-20T21:37:39.923Z,3.77
2018-03-20T21:40:07.414Z,2.93
2018-03-20T21:42:34.886Z,3.70
2018-03-20T21:45:03.485Z,3.83
2018-03-20T21:47:31.760Z,3.30
2018-03-20T21:50:00.013Z,3.37
2018-03-20T21:52:27.482Z,3.77
2018-03-20T21:54:55.600Z,3.40
2018-03-20T21:57:23.158Z,3.60
2018-03-20T21:59:50.727Z,3.03
2018-03-20T22:02:18.172Z,3.00
2018-03-20T22:04:46.472Z,2.90
2018-03-20T22:07:13.964Z,4.57
2018-03-20T22:09:41.463Z,2.80
2018-03-20T22:12:08.965Z,3.10
2018-03-20T22:14:38.002Z,3.37
2018-03-20T22:17:05.464Z,3.80
2018-03-20T22:19:33.358Z,5.23
2018-03-20T22:22:00.855Z,3.70
2018-03-20T22:24:29.656Z,4.20
2018-03-20T22:26:57.921Z,5.83
2018-03-20T22:29:26.227Z,3.33
2018-03-20T22:31:53.798Z,3.27
2018-03-20T22:34:21.251Z,4.30
2018-03-20T22:36:48.821Z,5.23
2018-03-20T22:39:16.354Z,3.97
2018-03-20T22:41:43.892Z,4.70
2018-03-20T22:44:11.421Z,3.43
2018-03-20T22:46:39.796Z,3.03
2018-03-20T22:49:10.142Z,4.97
2018-03-20T22:51:37.676Z,4.30
2018-03-20T22:54:05.121Z,3.77
2018-03-20T22:56:33.408Z,4.57
2018-03-20T22:59:01.022Z,4.00
2018-03-20T23:01:28.601Z,4.33
2018-03-20T23:03:56.151Z,5.10
2018-03-20T23:06:23.699Z,4.00
2018-03-20T23:08:51.392Z,5.03
2018-03-20T23:11:18.964Z,4.77
2018-03-20T23:13:47.197Z,4.23
2018-03-20T23:16:14.803Z,4.97
2018-03-20T23:18:42.311Z,4.63
2018-03-20T23:21:09.775Z,4.70
2018-03-20T23:23:37.330Z,5.10
2018-03-20T23:26:04.785Z,4.07
2018-03-20T23:28:33.151Z,4.90
2018-03-20T23:31:01.315Z,4.43
2018-03-20T23:33:28.816Z,5.43
2018-03-20T23:35:57.058Z,5.53
2018-03-20T23:38:25.246Z,5.10
2018-03-20T23:40:52.908Z,5.33
2018-03-20T23:43:20.465Z,5.10
2018-03-20T23:45:47.966Z,6.27
2018-03-20T23:48:16.481Z,4.23
2018-03-20T23:50:44.000Z,5.07
2018-03-20T23:53:12.305Z,4.80
2018-03-20T23:55:39.832Z,5.37
2018-03-20T23:58:07.331Z,4.50
